sensor_id;sensor_type;location;lat;lon;timestamp;P1;durP1;ratioP1;P2;durP2;ratioP2
71973;SDS011;59840;52.122;5.404;2022-09-13T00:01:22;4.25;;;3.85;;
71973;SDS011;59840;52.122;5.404;2022-09-13T00:03:48;4.13;;;3.67;;
71973;SDS011;59840;52.122;5.404;2022-09-13T00:06:16;3.80;;;3.50;;
71973;SDS011;59840;52.122;5.404;2022-09-13T00:08:44;5.07;;;3.40;;
71973;SDS011;59840;52.122;5.404;2022-09-13T00:11:19;4.18;;;3.78;;
71973;SDS011;59840;52.122;5.404;2022-09-13T00:13:49;6.32;;;3.53;;
71973;SDS011;59840;52.122;5.404;2022-09-13T00:16:17;4.00;;;3.60;;
71973;SDS011;59840;52.122;5.404;2022-09-13T00:18:46;4.07;;;3.70;;
71973;SDS011;59840;52.122;5.404;2022-09-13T00:21:14;4.83;;;3.20;;
71973;SDS011;59840;52.122;5.404;2022-09-13T00:23:45;4.20;;;3.78;;
71973;SDS011;59840;52.122;5.404;2022-09-13T00:26:18;6.97;;;4.70;;
71973;SDS011;59840;52.122;5.404;2022-09-13T00:28:50;5.65;;;4.78;;
71973;SDS011;59840;52.122;5.404;2022-09-13T00:31:18;5.93;;;4.40;;
71973;SDS011;59840;52.122;5.404;2022-09-13T00:33:45;5.60;;;4.27;;
71973;SDS011;59840;52.122;5.404;2022-09-13T00:36:11;6.53;;;4.18;;
71973;SDS011;59840;52.122;5.404;2022-09-13T00:38:38;5.88;;;4.05;;
71973;SDS011;59840;52.122;5.404;2022-09-13T00:41:06;5.88;;;4.60;;
71973;SDS011;59840;52.122;5.404;2022-09-13T00:46:19;4.67;;;4.27;;
71973;SDS011;59840;52.122;5.404;2022-09-13T00:48:47;6.53;;;4.00;;
71973;SDS011;59840;52.122;5.404;2022-09-13T00:51:18;4.85;;;4.32;;
71973;SDS011;59840;52.122;5.404;2022-09-13T00:53:46;5.18;;;3.85;;
71973;SDS011;59840;52.122;5.404;2022-09-13T00:56:24;3.72;;;3.42;;
71973;SDS011;59840;52.122;5.404;2022-09-13T00:58:56;6.43;;;3.73;;
71973;SDS011;59840;52.122;5.404;2022-09-13T01:01:30;4.38;;;3.92;;
71973;SDS011;59840;52.122;5.404;2022-09-13T01:04:01;5.28;;;4.10;;
71973;SDS011;59840;52.122;5.404;2022-09-13T01:06:29;4.45;;;4.05;;
71973;SDS011;59840;52.122;5.404;2022-09-13T01:08:59;5.18;;;4.22;;
71973;SDS011;59840;52.122;5.404;2022-09-13T01:11:39;6.13;;;4.10;;
71973;SDS011;59840;52.122;5.404;2022-09-13T01:14:10;4.47;;;3.88;;
71973;SDS011;59840;52.122;5.404;2022-09-13T01:16:38;5.75;;;4.70;;
71973;SDS011;59840;52.122;5.404;2022-09-13T01:19:05;4.82;;;4.32;;
71973;SDS011;59840;52.122;5.404;2022-09-13T01:30:05;4.68;;;4.28;;
71973;SDS011;59840;52.122;5.404;2022-09-13T01:41:10;8.75;;;3.85;;
71973;SDS011;59840;52.122;5.404;2022-09-13T01:43:50;4.85;;;4.45;;
71973;SDS011;59840;52.122;5.404;2022-09-13T01:49:21;6.47;;;4.70;;
71973;SDS011;59840;52.122;5.404;2022-09-13T01:52:07;5.40;;;4.47;;
71973;SDS011;59840;52.122;5.404;2022-09-13T01:58:04;5.18;;;4.68;;
71973;SDS011;59840;52.122;5.404;2022-09-13T02:00:51;4.85;;;4.32;;
71973;SDS011;59840;52.122;5.404;2022-09-13T02:03:44;6.13;;;4.30;;
71973;SDS011;59840;52.122;5.404;2022-09-13T02:06:19;8.10;;;4.50;;
71973;SDS011;59840;52.122;5.404;2022-09-13T02:08:50;4.85;;;4.28;;
71973;SDS011;59840;52.122;5.404;2022-09-13T02:11:38;5.75;;;4.50;;
71973;SDS011;59840;52.122;5.404;2022-09-13T02:14:10;4.63;;;4.22;;
71973;SDS011;59840;52.122;5.404;2022-09-13T02:16:54;5.85;;;4.32;;
71973;SDS011;59840;52.122;5.404;2022-09-13T02:20:14;4.80;;;4.40;;
71973;SDS011;59840;52.122;5.404;2022-09-13T02:22:21;5.18;;;4.55;;
71973;SDS011;59840;52.122;5.404;2022-09-13T02:24:54;4.65;;;4.25;;
71973;SDS011;59840;52.122;5.404;2022-09-13T02:27:25;4.72;;;4.20;;
71973;SDS011;59840;52.122;5.404;2022-09-13T02:29:56;4.75;;;4.35;;
71973;SDS011;59840;52.122;5.404;2022-09-13T02:32:30;4.77;;;4.37;;
71973;SDS011;59840;52.122;5.404;2022-09-13T02:35:05;4.45;;;4.05;;
71973;SDS011;59840;52.122;5.404;2022-09-13T02:37:39;5.38;;;4.38;;
71973;SDS011;59840;52.122;5.404;2022-09-13T02:40:09;6.00;;;4.50;;
71973;SDS011;59840;52.122;5.404;2022-09-13T02:42:45;4.88;;;4.07;;
71973;SDS011;59840;52.122;5.404;2022-09-13T02:45:18;9.70;;;4.37;;
71973;SDS011;59840;52.122;5.404;2022-09-13T02:47:58;6.78;;;4.45;;
71973;SDS011;59840;52.122;5.404;2022-09-13T02:53:22;7.60;;;4.47;;
71973;SDS011;59840;52.122;5.404;2022-09-13T02:56:03;4.40;;;4.00;;
71973;SDS011;59840;52.122;5.404;2022-09-13T02:59:15;5.10;;;3.97;;
71973;SDS011;59840;52.122;5.404;2022-09-13T03:01:33;4.57;;;3.50;;
71973;SDS011;59840;52.122;5.404;2022-09-13T03:04:02;4.45;;;3.50;;
71973;SDS011;59840;52.122;5.404;2022-09-13T03:06:29;5.15;;;4.03;;
71973;SDS011;59840;52.122;5.404;2022-09-13T03:08:57;4.03;;;3.28;;
71973;SDS011;59840;52.122;5.404;2022-09-13T03:11:54;3.87;;;3.50;;
71973;SDS011;59840;52.122;5.404;2022-09-13T03:14:36;4.00;;;3.67;;
71973;SDS011;59840;52.122;5.404;2022-09-13T03:17:31;4.30;;;3.90;;
71973;SDS011;59840;52.122;5.404;2022-09-13T03:20:10;6.30;;;4.20;;
71973;SDS011;59840;52.122;5.404;2022-09-13T03:22:59;4.68;;;3.58;;
71973;SDS011;59840;52.122;5.404;2022-09-13T03:31:20;4.50;;;3.88;;
71973;SDS011;59840;52.122;5.404;2022-09-13T03:33:57;5.65;;;4.07;;
71973;SDS011;59840;52.122;5.404;2022-09-13T03:36:33;5.40;;;4.15;;
71973;SDS011;59840;52.122;5.404;2022-09-13T03:41:44;4.30;;;3.90;;
71973;SDS011;59840;52.122;5.404;2022-09-13T03:44:16;4.57;;;3.83;;
71973;SDS011;59840;52.122;5.404;2022-09-13T03:46:47;5.13;;;3.95;;
71973;SDS011;59840;52.122;5.404;2022-09-13T03:49:18;4.50;;;4.00;;
71973;SDS011;59840;52.122;5.404;2022-09-13T03:51:48;6.67;;;4.23;;
71973;SDS011;59840;52.122;5.404;2022-09-13T03:54:17;5.03;;;4.38;;
71973;SDS011;59840;52.122;5.404;2022-09-13T03:57:04;5.72;;;4.50;;
71973;SDS011;59840;52.122;5.404;2022-09-13T03:59:35;5.00;;;4.55;;
71973;SDS011;59840;52.122;5.404;2022-09-13T04:02:04;5.53;;;4.90;;
71973;SDS011;59840;52.122;5.404;2022-09-13T04:04:40;5.10;;;4.60;;
71973;SDS011;59840;52.122;5.404;2022-09-13T04:07:08;5.18;;;4.72;;
71973;SDS011;59840;52.122;5.404;2022-09-13T04:09:36;5.47;;;4.40;;
71973;SDS011;59840;52.122;5.404;2022-09-13T04:12:03;5.78;;;5.10;;
71973;SDS011;59840;52.122;5.404;2022-09-13T04:14:29;6.20;;;4.60;;
71973;SDS011;59840;52.122;5.404;2022-09-13T04:16:56;5.53;;;5.00;;
71973;SDS011;59840;52.122;5.404;2022-09-13T04:19:24;6.22;;;4.95;;
71973;SDS011;59840;52.122;5.404;2022-09-13T04:21:51;5.72;;;4.97;;
71973;SDS011;59840;52.122;5.404;2022-09-13T04:24:19;5.85;;;4.47;;
71973;SDS011;59840;52.122;5.404;2022-09-13T04:26:49;7.38;;;4.47;;
71973;SDS011;59840;52.122;5.404;2022-09-13T04:29:16;6.53;;;5.00;;
71973;SDS011;59840;52.122;5.404;2022-09-13T04:31:44;6.90;;;4.72;;
71973;SDS011;59840;52.122;5.404;2022-09-13T04:34:11;4.75;;;4.28;;
71973;SDS011;59840;52.122;5.404;2022-09-13T04:36:38;5.43;;;4.30;;
71973;SDS011;59840;52.122;5.404;2022-09-13T04:39:05;5.35;;;4.57;;
71973;SDS011;59840;52.122;5.404;2022-09-13T04:41:32;4.97;;;4.47;;
71973;SDS011;59840;52.122;5.404;2022-09-13T04:44:00;5.07;;;3.95;;
71973;SDS011;59840;52.122;5.404;2022-09-13T04:46:27;4.63;;;4.22;;
71973;SDS011;59840;52.122;5.404;2022-09-13T04:48:55;4.97;;;4.35;;
71973;SDS011;59840;52.122;5.404;2022-09-13T04:51:22;4.38;;;3.85;;
71973;SDS011;59840;52.122;5.404;2022-09-13T04:53:52;6.03;;;4.30;;
71973;SDS011;59840;52.122;5.404;2022-09-13T04:56:20;4.25;;;3.88;;
71973;SDS011;59840;52.122;5.404;2022-09-13T04:58:51;5.03;;;4.20;;
71973;SDS011;59840;52.122;5.404;2022-09-13T05:01:20;5.20;;;4.57;;
71973;SDS011;59840;52.122;5.404;2022-09-13T05:03:52;5.82;;;4.40;;
71973;SDS011;59840;52.122;5.404;2022-09-13T05:06:19;4.53;;;4.13;;
71973;SDS011;59840;52.122;5.404;2022-09-13T05:08:51;5.88;;;4.38;;
71973;SDS011;59840;52.122;5.404;2022-09-13T05:11:21;5.07;;;4.65;;
71973;SDS011;59840;52.122;5.404;2022-09-13T05:13:49;4.72;;;3.97;;
71973;SDS011;59840;52.122;5.404;2022-09-13T05:16:22;6.28;;;4.55;;
71973;SDS011;59840;52.122;5.404;2022-09-13T05:18:50;5.33;;;4.70;;
71973;SDS011;59840;52.122;5.404;2022-09-13T05:21:17;6.38;;;5.32;;
71973;SDS011;59840;52.122;5.404;2022-09-13T05:23:47;7.35;;;4.75;;
71973;SDS011;59840;52.122;5.404;2022-09-13T05:26:15;6.32;;;4.85;;
71973;SDS011;59840;52.122;5.404;2022-09-13T05:28:42;5.53;;;4.97;;
71973;SDS011;59840;52.122;5.404;2022-09-13T05:31:11;6.47;;;4.80;;
71973;SDS011;59840;52.122;5.404;2022-09-13T05:33:40;6.85;;;4.85;;
71973;SDS011;59840;52.122;5.404;2022-09-13T05:36:07;7.63;;;4.97;;
71973;SDS011;59840;52.122;5.404;2022-09-13T05:38:33;7.97;;;5.18;;
71973;SDS011;59840;52.122;5.404;2022-09-13T05:41:01;8.10;;;5.43;;
71973;SDS011;59840;52.122;5.404;2022-09-13T05:43:31;6.23;;;5.57;;
71973;SDS011;59840;52.122;5.404;2022-09-13T05:46:10;10.15;;;6.30;;
71973;SDS011;59840;52.122;5.404;2022-09-13T05:48:38;7.30;;;4.93;;
71973;SDS011;59840;52.122;5.404;2022-09-13T05:51:07;6.32;;;5.60;;
71973;SDS011;59840;52.122;5.404;2022-09-13T05:53:36;9.13;;;6.18;;
71973;SDS011;59840;52.122;5.404;2022-09-13T05:56:05;9.80;;;6.73;;
71973;SDS011;59840;52.122;5.404;2022-09-13T05:58:33;11.77;;;6.80;;
71973;SDS011;59840;52.122;5.404;2022-09-13T06:01:03;12.02;;;7.18;;
71973;SDS011;59840;52.122;5.404;2022-09-13T06:03:30;9.80;;;6.85;;
71973;SDS011;59840;52.122;5.404;2022-09-13T06:05:56;9.05;;;7.13;;
71973;SDS011;59840;52.122;5.404;2022-09-13T06:08:24;10.03;;;6.60;;
71973;SDS011;59840;52.122;5.404;2022-09-13T06:10:55;8.30;;;5.88;;
71973;SDS011;59840;52.122;5.404;2022-09-13T06:13:23;9.13;;;6.60;;
71973;SDS011;59840;52.122;5.404;2022-09-13T06:15:51;9.95;;;6.80;;
71973;SDS011;59840;52.122;5.404;2022-09-13T06:18:18;8.18;;;6.53;;
71973;SDS011;59840;52.122;5.404;2022-09-13T06:20:45;8.73;;;6.97;;
71973;SDS011;59840;52.122;5.404;2022-09-13T06:23:12;10.20;;;7.22;;
71973;SDS011;59840;52.122;5.404;2022-09-13T06:25:39;11.20;;;7.97;;
71973;SDS011;59840;52.122;5.404;2022-09-13T06:28:06;18.20;;;10.68;;
71973;SDS011;59840;52.122;5.404;2022-09-13T06:30:33;18.38;;;10.60;;
71973;SDS011;59840;52.122;5.404;2022-09-13T06:32:59;16.20;;;10.60;;
71973;SDS011;59840;52.122;5.404;2022-09-13T06:35:26;18.92;;;11.07;;
71973;SDS011;59840;52.122;5.404;2022-09-13T06:37:56;17.50;;;10.57;;
71973;SDS011;59840;52.122;5.404;2022-09-13T06:40:24;19.63;;;12.18;;
71973;SDS011;59840;52.122;5.404;2022-09-13T06:42:50;20.45;;;12.30;;
71973;SDS011;59840;52.122;5.404;2022-09-13T06:45:17;19.10;;;11.53;;
71973;SDS011;59840;52.122;5.404;2022-09-13T06:47:44;20.88;;;11.68;;
71973;SDS011;59840;52.122;5.404;2022-09-13T06:50:10;20.20;;;11.35;;
71973;SDS011;59840;52.122;5.404;2022-09-13T06:52:36;19.48;;;10.98;;
71973;SDS011;59840;52.122;5.404;2022-09-13T06:55:03;19.65;;;10.80;;
71973;SDS011;59840;52.122;5.404;2022-09-13T06:57:33;18.07;;;10.90;;
71973;SDS011;59840;52.122;5.404;2022-09-13T07:00:00;20.00;;;11.02;;
71973;SDS011;59840;52.122;5.404;2022-09-13T07:02:26;24.20;;;13.35;;
71973;SDS011;59840;52.122;5.404;2022-09-13T07:04:53;23.55;;;13.63;;
71973;SDS011;59840;52.122;5.404;2022-09-13T07:07:20;18.65;;;12.30;;
71973;SDS011;59840;52.122;5.404;2022-09-13T07:09:46;22.47;;;13.23;;
71973;SDS011;59840;52.122;5.404;2022-09-13T07:12:13;25.95;;;13.18;;
71973;SDS011;59840;52.122;5.404;2022-09-13T07:14:45;21.73;;;12.02;;
71973;SDS011;59840;52.122;5.404;2022-09-13T07:17:11;18.77;;;12.70;;
71973;SDS011;59840;52.122;5.404;2022-09-13T07:19:38;18.73;;;12.40;;
71973;SDS011;59840;52.122;5.404;2022-09-13T07:22:05;21.27;;;13.03;;
71973;SDS011;59840;52.122;5.404;2022-09-13T07:24:31;20.77;;;13.07;;
71973;SDS011;59840;52.122;5.404;2022-09-13T07:26:58;24.08;;;13.20;;
71973;SDS011;59840;52.122;5.404;2022-09-13T07:29:24;20.65;;;11.75;;
71973;SDS011;59840;52.122;5.404;2022-09-13T07:31:52;21.05;;;12.60;;
71973;SDS011;59840;52.122;5.404;2022-09-13T07:34:20;19.83;;;11.10;;
71973;SDS011;59840;52.122;5.404;2022-09-13T07:36:49;18.80;;;11.20;;
71973;SDS011;59840;52.122;5.404;2022-09-13T07:39:15;22.02;;;10.95;;
71973;SDS011;59840;52.122;5.404;2022-09-13T07:41:47;15.77;;;10.38;;
71973;SDS011;59840;52.122;5.404;2022-09-13T07:44:14;18.33;;;10.13;;
71973;SDS011;59840;52.122;5.404;2022-09-13T07:46:41;16.83;;;9.90;;
71973;SDS011;59840;52.122;5.404;2022-09-13T07:49:11;14.45;;;9.65;;
71973;SDS011;59840;52.122;5.404;2022-09-13T07:51:40;17.08;;;10.10;;
71973;SDS011;59840;52.122;5.404;2022-09-13T07:54:09;15.48;;;9.50;;
71973;SDS011;59840;52.122;5.404;2022-09-13T07:56:40;12.88;;;8.75;;
71973;SDS011;59840;52.122;5.404;2022-09-13T07:59:10;13.37;;;8.90;;
71973;SDS011;59840;52.122;5.404;2022-09-13T08:01:39;10.68;;;7.40;;
71973;SDS011;59840;52.122;5.404;2022-09-13T08:04:09;6.72;;;5.53;;
71973;SDS011;59840;52.122;5.404;2022-09-13T08:06:37;7.70;;;6.32;;
71973;SDS011;59840;52.122;5.404;2022-09-13T08:09:06;10.35;;;5.47;;
71973;SDS011;59840;52.122;5.404;2022-09-13T08:11:38;8.50;;;5.77;;
71973;SDS011;59840;52.122;5.404;2022-09-13T08:14:07;7.68;;;5.95;;
71973;SDS011;59840;52.122;5.404;2022-09-13T08:16:36;8.02;;;5.85;;
71973;SDS011;59840;52.122;5.404;2022-09-13T08:19:04;6.63;;;4.90;;
71973;SDS011;59840;52.122;5.404;2022-09-13T08:21:33;8.18;;;5.82;;
71973;SDS011;59840;52.122;5.404;2022-09-13T08:24:02;9.40;;;4.90;;
71973;SDS011;59840;52.122;5.404;2022-09-13T08:26:30;8.10;;;5.38;;
71973;SDS011;59840;52.122;5.404;2022-09-13T08:29:00;5.90;;;4.70;;
71973;SDS011;59840;52.122;5.404;2022-09-13T08:31:29;5.90;;;4.38;;
71973;SDS011;59840;52.122;5.404;2022-09-13T08:33:56;8.90;;;3.80;;
71973;SDS011;59840;52.122;5.404;2022-09-13T08:36:23;6.70;;;3.87;;
71973;SDS011;59840;52.122;5.404;2022-09-13T08:38:51;4.30;;;3.45;;
71973;SDS011;59840;52.122;5.404;2022-09-13T08:44:09;4.75;;;3.40;;
71973;SDS011;59840;52.122;5.404;2022-09-13T08:46:44;4.32;;;3.25;;
71973;SDS011;59840;52.122;5.404;2022-09-13T08:49:14;6.10;;;3.23;;
71973;SDS011;59840;52.122;5.404;2022-09-13T08:51:47;5.72;;;3.50;;
71973;SDS011;59840;52.122;5.404;2022-09-13T08:54:19;3.97;;;2.97;;
71973;SDS011;59840;52.122;5.404;2022-09-13T09:04:43;4.57;;;2.50;;
71973;SDS011;59840;52.122;5.404;2022-09-13T09:07:16;2.83;;;2.20;;
71973;SDS011;59840;52.122;5.404;2022-09-13T09:09:50;2.95;;;1.92;;
71973;SDS011;59840;52.122;5.404;2022-09-13T09:12:41;1.85;;;1.60;;
71973;SDS011;59840;52.122;5.404;2022-09-13T09:17:59;2.97;;;0.95;;
71973;SDS011;59840;52.122;5.404;2022-09-13T09:20:35;2.13;;;1.20;;
71973;SDS011;59840;52.122;5.404;2022-09-13T09:23:13;1.98;;;1.27;;
71973;SDS011;59840;52.122;5.404;2022-09-13T09:25:47;3.85;;;1.25;;
71973;SDS011;59840;52.122;5.404;2022-09-13T09:28:17;2.10;;;1.00;;
71973;SDS011;59840;52.122;5.404;2022-09-13T09:33:33;1.77;;;0.80;;
71973;SDS011;59840;52.122;5.404;2022-09-13T09:39:00;3.15;;;0.80;;
71973;SDS011;59840;52.122;5.404;2022-09-13T09:41:30;0.90;;;0.80;;
71973;SDS011;59840;52.122;5.404;2022-09-13T09:44:05;3.63;;;1.15;;
71973;SDS011;59840;52.122;5.404;2022-09-13T09:46:35;1.73;;;0.90;;
71973;SDS011;59840;52.122;5.404;2022-09-13T09:49:25;1.65;;;0.60;;
71973;SDS011;59840;52.122;5.404;2022-09-13T09:52:16;1.40;;;0.80;;
71973;SDS011;59840;52.122;5.404;2022-09-13T09:54:48;2.67;;;1.30;;
71973;SDS011;59840;52.122;5.404;2022-09-13T09:57:15;3.40;;;0.68;;
71973;SDS011;59840;52.122;5.404;2022-09-13T09:59:45;3.10;;;0.70;;
71973;SDS011;59840;52.122;5.404;2022-09-13T10:02:13;1.52;;;0.50;;
71973;SDS011;59840;52.122;5.404;2022-09-13T10:04:58;2.13;;;1.00;;
71973;SDS011;59840;52.122;5.404;2022-09-13T10:07:31;2.50;;;0.50;;
71973;SDS011;59840;52.122;5.404;2022-09-13T10:11:00;1.30;;;0.80;;
71973;SDS011;59840;52.122;5.404;2022-09-13T10:13:04;0.70;;;0.60;;
71973;SDS011;59840;52.122;5.404;2022-09-13T10:15:33;2.20;;;0.70;;
71973;SDS011;59840;52.122;5.404;2022-09-13T10:18:05;2.05;;;0.70;;
71973;SDS011;59840;52.122;5.404;2022-09-13T10:21:23;0.47;;;0.43;;
71973;SDS011;59840;52.122;5.404;2022-09-13T10:23:50;1.80;;;0.80;;
71973;SDS011;59840;52.122;5.404;2022-09-13T10:26:17;2.05;;;0.60;;
71973;SDS011;59840;52.122;5.404;2022-09-13T10:31:32;2.50;;;1.00;;
71973;SDS011;59840;52.122;5.404;2022-09-13T10:34:06;1.97;;;0.70;;
71973;SDS011;59840;52.122;5.404;2022-09-13T10:36:59;1.52;;;0.80;;
71973;SDS011;59840;52.122;5.404;2022-09-13T10:39:30;1.40;;;0.70;;
71973;SDS011;59840;52.122;5.404;2022-09-13T10:42:04;3.20;;;0.90;;
71973;SDS011;59840;52.122;5.404;2022-09-13T10:47:06;2.50;;;1.20;;
71973;SDS011;59840;52.122;5.404;2022-09-13T10:49:43;2.88;;;1.30;;
71973;SDS011;59840;52.122;5.404;2022-09-13T10:52:27;1.35;;;1.00;;
71973;SDS011;59840;52.122;5.404;2022-09-13T10:57:47;2.88;;;1.00;;
71973;SDS011;59840;52.122;5.404;2022-09-13T11:00:19;2.13;;;1.07;;
71973;SDS011;59840;52.122;5.404;2022-09-13T11:19:43;1.92;;;0.80;;
71973;SDS011;59840;52.122;5.404;2022-09-13T11:25:01;1.17;;;0.70;;
71973;SDS011;59840;52.122;5.404;2022-09-13T11:30:15;4.75;;;0.85;;
71973;SDS011;59840;52.122;5.404;2022-09-13T11:43:45;5.25;;;0.77;;
71973;SDS011;59840;52.122;5.404;2022-09-13T11:51:42;4.60;;;0.88;;
71973;SDS011;59840;52.122;5.404;2022-09-13T11:56:56;2.40;;;0.68;;
71973;SDS011;59840;52.122;5.404;2022-09-13T11:59:39;1.55;;;0.70;;
71973;SDS011;59840;52.122;5.404;2022-09-13T12:04:49;3.58;;;0.80;;
71973;SDS011;59840;52.122;5.404;2022-09-13T12:07:44;2.03;;;1.10;;
71973;SDS011;59840;52.122;5.404;2022-09-13T12:12:52;0.98;;;0.50;;
71973;SDS011;59840;52.122;5.404;2022-09-13T12:17:58;2.60;;;0.73;;
71973;SDS011;59840;52.122;5.404;2022-09-13T12:20:34;2.27;;;0.90;;
71973;SDS011;59840;52.122;5.404;2022-09-13T12:23:06;0.77;;;0.60;;
71973;SDS011;59840;52.122;5.404;2022-09-13T12:25:42;1.45;;;0.68;;
71973;SDS011;59840;52.122;5.404;2022-09-13T12:28:18;1.98;;;0.80;;
71973;SDS011;59840;52.122;5.404;2022-09-13T12:30:54;3.15;;;0.65;;
71973;SDS011;59840;52.122;5.404;2022-09-13T12:33:24;1.73;;;0.77;;
71973;SDS011;59840;52.122;5.404;2022-09-13T12:52:36;2.92;;;0.80;;
71973;SDS011;59840;52.122;5.404;2022-09-13T12:55:17;1.23;;;0.73;;
71973;SDS011;59840;52.122;5.404;2022-09-13T12:58:27;3.25;;;1.13;;
71973;SDS011;59840;52.122;5.404;2022-09-13T13:01:13;5.30;;;1.00;;
71973;SDS011;59840;52.122;5.404;2022-09-13T13:03:47;0.90;;;0.43;;
71973;SDS011;59840;52.122;5.404;2022-09-13T13:06:34;2.42;;;0.57;;
71973;SDS011;59840;52.122;5.404;2022-09-13T13:09:22;4.47;;;0.70;;
71973;SDS011;59840;52.122;5.404;2022-09-13T13:11:54;1.65;;;0.70;;
71973;SDS011;59840;52.122;5.404;2022-09-13T13:23:29;2.08;;;0.60;;
71973;SDS011;59840;52.122;5.404;2022-09-13T13:39:12;1.02;;;0.60;;
71973;SDS011;59840;52.122;5.404;2022-09-13T13:42:00;0.90;;;0.40;;
71973;SDS011;59840;52.122;5.404;2022-09-13T13:50:13;1.10;;;0.50;;
71973;SDS011;59840;52.122;5.404;2022-09-13T13:52:55;1.85;;;0.70;;
71973;SDS011;59840;52.122;5.404;2022-09-13T13:55:38;4.23;;;0.70;;
71973;SDS011;59840;52.122;5.404;2022-09-13T14:00:59;2.13;;;0.50;;
71973;SDS011;59840;52.122;5.404;2022-09-13T14:06:11;2.17;;;0.50;;
71973;SDS011;59840;52.122;5.404;2022-09-13T14:12:00;1.00;;;0.40;;
71973;SDS011;59840;52.122;5.404;2022-09-13T14:15:01;1.92;;;0.50;;
71973;SDS011;59840;52.122;5.404;2022-09-13T14:20:15;1.17;;;0.63;;
71973;SDS011;59840;52.122;5.404;2022-09-13T14:22:43;1.53;;;0.43;;
71973;SDS011;59840;52.122;5.404;2022-09-13T14:27:46;0.80;;;0.30;;
71973;SDS011;59840;52.122;5.404;2022-09-13T14:32:53;2.70;;;0.40;;
71973;SDS011;59840;52.122;5.404;2022-09-13T14:35:30;2.10;;;0.50;;
71973;SDS011;59840;52.122;5.404;2022-09-13T14:38:09;0.60;;;0.40;;
71973;SDS011;59840;52.122;5.404;2022-09-13T14:40:47;2.55;;;0.50;;
71973;SDS011;59840;52.122;5.404;2022-09-13T14:43:17;1.17;;;0.40;;
71973;SDS011;59840;52.122;5.404;2022-09-13T14:45:46;2.17;;;0.40;;
71973;SDS011;59840;52.122;5.404;2022-09-13T14:48:40;1.03;;;0.53;;
71973;SDS011;59840;52.122;5.404;2022-09-13T14:51:23;2.65;;;0.32;;
71973;SDS011;59840;52.122;5.404;2022-09-13T14:53:55;1.70;;;0.40;;
71973;SDS011;59840;52.122;5.404;2022-09-13T14:56:32;3.03;;;0.50;;
71973;SDS011;59840;52.122;5.404;2022-09-13T14:59:05;1.33;;;0.40;;
71973;SDS011;59840;52.122;5.404;2022-09-13T15:01:49;2.10;;;0.40;;
71973;SDS011;59840;52.122;5.404;2022-09-13T15:04:16;2.58;;;0.40;;
71973;SDS011;59840;52.122;5.404;2022-09-13T15:06:44;1.48;;;0.40;;
71973;SDS011;59840;52.122;5.404;2022-09-13T15:11:39;2.35;;;1.15;;
71973;SDS011;59840;52.122;5.404;2022-09-13T15:16:58;2.15;;;0.60;;
71973;SDS011;59840;52.122;5.404;2022-09-13T15:19:36;2.60;;;0.50;;
71973;SDS011;59840;52.122;5.404;2022-09-13T15:22:14;2.55;;;0.60;;
71973;SDS011;59840;52.122;5.404;2022-09-13T15:24:49;2.65;;;0.60;;
71973;SDS011;59840;52.122;5.404;2022-09-13T15:27:19;1.57;;;0.57;;
71973;SDS011;59840;52.122;5.404;2022-09-13T15:29:49;2.83;;;1.00;;
71973;SDS011;59840;52.122;5.404;2022-09-13T15:32:22;3.03;;;0.50;;
71973;SDS011;59840;52.122;5.404;2022-09-13T15:34:56;0.82;;;0.43;;
71973;SDS011;59840;52.122;5.404;2022-09-13T15:37:27;2.42;;;0.47;;
71973;SDS011;59840;52.122;5.404;2022-09-13T15:40:19;1.17;;;0.50;;
71973;SDS011;59840;52.122;5.404;2022-09-13T15:42:47;1.75;;;0.50;;
71973;SDS011;59840;52.122;5.404;2022-09-13T15:45:16;3.47;;;0.55;;
71973;SDS011;59840;52.122;5.404;2022-09-13T15:47:50;2.72;;;0.60;;
71973;SDS011;59840;52.122;5.404;2022-09-13T15:50:27;2.13;;;0.50;;
71973;SDS011;59840;52.122;5.404;2022-09-13T15:52:56;1.80;;;0.60;;
71973;SDS011;59840;52.122;5.404;2022-09-13T15:55:25;2.78;;;0.63;;
71973;SDS011;59840;52.122;5.404;2022-09-13T15:57:52;2.05;;;0.50;;
71973;SDS011;59840;52.122;5.404;2022-09-13T16:00:24;2.25;;;0.50;;
71973;SDS011;59840;52.122;5.404;2022-09-13T16:02:53;2.38;;;0.50;;
71973;SDS011;59840;52.122;5.404;2022-09-13T16:05:19;1.53;;;0.43;;
71973;SDS011;59840;52.122;5.404;2022-09-13T16:07:46;2.30;;;0.50;;
71973;SDS011;59840;52.122;5.404;2022-09-13T16:10:17;1.63;;;0.50;;
71973;SDS011;59840;52.122;5.404;2022-09-13T16:12:45;5.50;;;0.63;;
71973;SDS011;59840;52.122;5.404;2022-09-13T16:15:12;1.05;;;0.40;;
71973;SDS011;59840;52.122;5.404;2022-09-13T16:17:39;2.90;;;0.53;;
71973;SDS011;59840;52.122;5.404;2022-09-13T16:20:06;3.80;;;0.50;;
71973;SDS011;59840;52.122;5.404;2022-09-13T16:22:36;2.30;;;0.40;;
71973;SDS011;59840;52.122;5.404;2022-09-13T16:25:03;4.07;;;0.45;;
71973;SDS011;59840;52.122;5.404;2022-09-13T16:27:30;1.15;;;0.40;;
71973;SDS011;59840;52.122;5.404;2022-09-13T16:29:59;0.73;;;0.40;;
71973;SDS011;59840;52.122;5.404;2022-09-13T16:32:25;2.00;;;0.47;;
71973;SDS011;59840;52.122;5.404;2022-09-13T16:34:52;1.67;;;0.40;;
71973;SDS011;59840;52.122;5.404;2022-09-13T16:37:18;3.10;;;0.90;;
71973;SDS011;59840;52.122;5.404;2022-09-13T16:39:45;3.40;;;0.50;;
71973;SDS011;59840;52.122;5.404;2022-09-13T16:42:12;2.03;;;0.60;;
71973;SDS011;59840;52.122;5.404;2022-09-13T16:44:40;1.92;;;0.50;;
71973;SDS011;59840;52.122;5.404;2022-09-13T16:47:07;1.85;;;0.40;;
71973;SDS011;59840;52.122;5.404;2022-09-13T16:49:34;2.00;;;0.40;;
71973;SDS011;59840;52.122;5.404;2022-09-13T16:52:00;2.63;;;0.40;;
71973;SDS011;59840;52.122;5.404;2022-09-13T16:54:28;2.77;;;0.50;;
71973;SDS011;59840;52.122;5.404;2022-09-13T16:56:56;2.28;;;0.35;;
71973;SDS011;59840;52.122;5.404;2022-09-13T16:59:23;1.83;;;0.30;;
71973;SDS011;59840;52.122;5.404;2022-09-13T17:01:50;3.55;;;0.40;;
71973;SDS011;59840;52.122;5.404;2022-09-13T17:04:17;2.05;;;0.30;;
71973;SDS011;59840;52.122;5.404;2022-09-13T17:06:44;3.10;;;0.40;;
71973;SDS011;59840;52.122;5.404;2022-09-13T17:09:11;2.75;;;0.45;;
71973;SDS011;59840;52.122;5.404;2022-09-13T17:11:38;1.98;;;0.30;;
71973;SDS011;59840;52.122;5.404;2022-09-13T17:14:06;3.97;;;0.47;;
71973;SDS011;59840;52.122;5.404;2022-09-13T17:16:35;0.60;;;0.30;;
71973;SDS011;59840;52.122;5.404;2022-09-13T17:19:16;1.57;;;0.30;;
71973;SDS011;59840;52.122;5.404;2022-09-13T17:21:47;3.03;;;0.30;;
71973;SDS011;59840;52.122;5.404;2022-09-13T17:24:14;3.35;;;0.40;;
71973;SDS011;59840;52.122;5.404;2022-09-13T17:26:41;1.67;;;0.30;;
71973;SDS011;59840;52.122;5.404;2022-09-13T17:29:11;1.25;;;0.47;;
71973;SDS011;59840;52.122;5.404;2022-09-13T17:31:39;2.63;;;0.30;;
71973;SDS011;59840;52.122;5.404;2022-09-13T17:34:06;5.47;;;0.40;;
71973;SDS011;59840;52.122;5.404;2022-09-13T17:36:33;1.63;;;0.40;;
71973;SDS011;59840;52.122;5.404;2022-09-13T17:38:59;2.60;;;0.30;;
71973;SDS011;59840;52.122;5.404;2022-09-13T17:41:26;1.90;;;0.30;;
71973;SDS011;59840;52.122;5.404;2022-09-13T17:43:53;4.77;;;0.43;;
71973;SDS011;59840;52.122;5.404;2022-09-13T17:46:23;3.17;;;0.60;;
71973;SDS011;59840;52.122;5.404;2022-09-13T17:48:54;2.97;;;0.40;;
71973;SDS011;59840;52.122;5.404;2022-09-13T17:51:24;1.65;;;0.30;;
71973;SDS011;59840;52.122;5.404;2022-09-13T17:53:55;1.83;;;0.50;;
71973;SDS011;59840;52.122;5.404;2022-09-13T17:59:11;2.85;;;0.50;;
71973;SDS011;59840;52.122;5.404;2022-09-13T18:01:39;2.15;;;0.28;;
71973;SDS011;59840;52.122;5.404;2022-09-13T18:04:07;2.90;;;0.40;;
71973;SDS011;59840;52.122;5.404;2022-09-13T18:06:37;1.58;;;0.30;;
71973;SDS011;59840;52.122;5.404;2022-09-13T18:09:08;1.00;;;0.30;;
71973;SDS011;59840;52.122;5.404;2022-09-13T18:11:39;1.70;;;0.30;;
71973;SDS011;59840;52.122;5.404;2022-09-13T18:14:06;4.07;;;0.50;;
71973;SDS011;59840;52.122;5.404;2022-09-13T18:16:36;2.55;;;0.40;;